Time;durP1;ratioP1;P1;durP2;ratioP2;P2;SDS_P1;SDS_P2;PMS_P1;PMS_P2;Temp;Humidity;BMP_temperature;BMP_pressure;BME280_temperature;BME280_humidity;BME280_pressure;Samples;Min_cycle;Max_cycle;Signal;HPM_P1;HPM_P2
2022/04/23 00:01:54;;;;;;;12.65;11.80;;;;;;;8.15;73.83;99354.47;10203245;29;20051;-71
2022/04/23 00:06:57;;;;;;;11.30;10.50;;;;;;;8.33;72.70;99353.84;10218245;29;20501;-71
2022/04/23 00:11:59;;;;;;;11.80;11.00;;;;;;;8.17;73.30;99355.25;10221161;29;20097;-72
2022/04/23 00:17:02;;;;;;;12.00;11.18;;;;;;;8.00;73.98;99355.81;10220261;29;20040;-71
2022/04/23 00:22:03;;;;;;;11.93;11.13;;;;;;;8.03;73.79;99352.25;10219996;29;20052;-72
2022/04/23 00:27:06;;;;;;;11.65;10.75;;;;;;;7.82;74.16;99354.63;10218225;29;20425;-71
2022/04/23 00:32:08;;;;;;;12.07;11.20;;;;;;;7.74;74.50;99347.91;10218351;29;20050;-72
2022/04/23 00:37:10;;;;;;;13.10;12.13;;;;;;;7.75;74.57;99344.44;10219119;29;20465;-71
2022/04/23 00:42:11;;;;;;;11.90;11.00;;;;;;;7.65;75.04;99346.44;10220257;29;20057;-71
2022/04/23 00:47:13;;;;;;;14.20;13.20;;;;;;;7.55;75.28;99347.63;10220127;29;20415;-71
2022/04/23 00:52:15;;;;;;;13.27;12.27;;;;;;;7.41;76.22;99348.06;10218362;29;20043;-71
2022/04/23 00:57:17;;;;;;;13.88;12.77;;;;;;;7.26;76.65;99354.59;10217755;29;20043;-71
2022/04/23 01:02:18;;;;;;;14.75;13.75;;;;;;;7.32;76.67;99357.03;10217367;29;20506;-72
2022/04/23 01:07:20;;;;;;;14.00;12.80;;;;;;;7.21;77.08;99353.84;10217304;29;20046;-71
2022/04/23 01:12:22;;;;;;;14.70;13.70;;;;;;;7.01;77.95;99349.22;10215292;29;20124;-71
2022/04/23 01:17:24;;;;;;;15.52;14.38;;;;;;;6.85;78.97;99350.53;10216623;29;20066;-72
2022/04/23 01:22:26;;;;;;;15.88;14.60;;;;;;;7.00;78.28;99347.50;10218073;29;20044;-71
2022/04/23 01:27:29;;;;;;;14.27;13.27;;;;;;;6.80;79.06;99355.03;10219039;29;20076;-71
2022/04/23 01:32:31;;;;;;;14.65;13.52;;;;;;;6.69;79.16;99349.25;10217809;29;20051;-73
2022/04/23 01:37:32;;;;;;;14.60;13.57;;;;;;;6.72;78.54;99338.72;10217043;29;20066;-72
2022/04/23 01:42:34;;;;;;;15.23;14.13;;;;;;;6.58;79.56;99342.53;10214296;29;20363;-71
2022/04/23 01:47:39;;;;;;;14.70;13.60;;;;;;;6.61;79.43;99339.00;10216146;29;20051;-71
2022/04/23 01:52:40;;;;;;;14.93;13.82;;;;;;;6.34;79.72;99348.41;10219265;29;20047;-74
2022/04/23 01:57:42;;;;;;;15.55;14.35;;;;;;;6.07;80.95;99348.22;10218481;29;20084;-73
2022/04/23 02:02:44;;;;;;;14.43;13.43;;;;;;;5.94;81.40;99346.78;10217682;29;20051;-74
2022/04/23 02:07:46;;;;;;;15.55;14.38;;;;;;;5.91;82.38;99344.22;10218667;29;20083;-74
2022/04/23 02:12:48;;;;;;;16.13;14.93;;;;;;;5.90;82.63;99349.47;10219968;29;20079;-75
2022/04/23 02:17:50;;;;;;;15.30;14.20;;;;;;;6.06;80.75;99348.22;10220296;29;20044;-74
2022/04/23 02:22:52;;;;;;;16.75;15.55;;;;;;;6.10;80.74;99355.09;10221739;29;20058;-75
2022/04/23 02:27:53;;;;;;;17.33;15.77;;;;;;;5.65;82.39;99359.59;10222391;29;20446;-75
2022/04/23 02:32:55;;;;;;;15.98;14.77;;;;;;;5.30;84.59;99356.03;10227606;29;20062;-74
2022/04/23 02:37:57;;;;;;;16.85;15.50;;;;;;;5.55;84.05;99348.53;10226760;29;20058;-74
2022/04/23 02:43:00;;;;;;;16.45;15.25;;;;;;;5.53;84.63;99350.31;10226338;29;20055;-75
2022/04/23 02:48:01;;;;;;;16.73;15.35;;;;;;;5.48;84.37;99345.19;10225219;29;20050;-74
2022/04/23 02:53:07;;;;;;;17.08;15.80;;;;;;;5.53;83.81;99353.78;10226903;29;20055;-74
2022/04/23 02:58:10;;;;;;;15.70;14.60;;;;;;;5.44;84.09;99346.16;10224794;29;20075;-74
2022/04/23 03:03:12;;;;;;;16.27;15.07;;;;;;;5.37;83.65;99351.56;10221982;29;20047;-75
2022/04/23 03:08:15;;;;;;;15.55;14.45;;;;;;;5.13;84.43;99351.16;10223673;29;20039;-74
2022/04/23 03:13:16;;;;;;;16.55;15.35;;;;;;;5.00;83.60;99357.50;10224892;29;20052;-74
2022/04/23 03:18:18;;;;;;;15.25;14.15;;;;;;;4.77;84.99;99366.63;10223359;29;20072;-74
2022/04/23 03:23:20;;;;;;;15.55;14.45;;;;;;;4.64;85.47;99372.94;10221094;29;20099;-74
2022/04/23 03:28:23;;;;;;;16.60;15.45;;;;;;;4.50;86.16;99374.94;10206040;29;20048;-74
2022/04/23 03:33:24;;;;;;;15.48;14.27;;;;;;;4.41;86.69;99380.31;10221476;29;20414;-73
2022/04/23 03:38:26;;;;;;;17.17;15.98;;;;;;;4.45;87.69;99369.81;10220427;29;20047;-74
2022/04/23 03:43:28;;;;;;;17.92;16.63;;;;;;;4.46;88.00;99371.53;10222490;29;20056;-75
2022/04/23 03:48:29;;;;;;;17.55;16.30;;;;;;;4.47;87.64;99382.78;10222788;29;20115;-73
2022/04/23 03:53:31;;;;;;;16.88;15.60;;;;;;;4.73;86.30;99377.13;10222996;29;20051;-75
2022/04/23 03:58:33;;;;;;;17.10;15.75;;;;;;;4.63;85.17;99388.59;10221872;29;20043;-75
2022/04/23 04:03:35;;;;;;;17.10;15.73;;;;;;;4.76;84.48;99403.13;10207303;29;20039;-74
2022/04/23 04:08:37;;;;;;;17.35;16.02;;;;;;;4.53;85.82;99396.56;10222933;29;20048;-74
2022/04/23 04:13:38;;;;;;;17.80;16.38;;;;;;;4.11;87.80;99395.53;10222066;29;20472;-74
2022/04/23 04:18:40;;;;;;;18.13;16.75;;;;;;;4.03;88.91;99397.41;10219871;29;20044;-74
2022/04/23 04:23:42;;;;;;;18.88;16.38;;;;;;;4.19;88.49;99390.22;10220072;29;20055;-74
2022/04/23 04:28:43;;;;;;;16.55;15.35;;;;;;;4.19;87.78;99400.63;10218551;29;20046;-75
2022/04/23 04:33:45;;;;;;;17.05;15.65;;;;;;;4.39;87.22;99398.56;10220254;29;20052;-75
2022/04/23 04:38:47;;;;;;;17.77;16.38;;;;;;;4.25;87.67;99401.41;10204239;29;20048;-74
2022/04/23 04:43:48;;;;;;;18.80;17.45;;;;;;;4.41;87.91;99409.78;10219058;29;20128;-75
2022/04/23 04:48:52;;;;;;;19.52;18.05;;;;;;;4.43;88.39;99408.03;10219632;29;20134;-74
2022/04/23 04:53:54;;;;;;;20.30;18.70;;;;;;;4.88;87.29;99415.91;10202269;29;20051;-74
2022/04/23 04:58:56;;;;;;;19.15;17.70;;;;;;;4.98;86.37;99416.59;10219159;29;20055;-74
2022/04/23 05:03:57;;;;;;;22.52;20.92;;;;;;;4.83;87.61;99417.75;10219984;29;20517;-73
2022/04/23 05:08:59;;;;;;;22.83;20.92;;;;;;;5.12;86.32;99411.97;10220300;29;20047;-74
2022/04/23 05:14:01;;;;;;;21.15;19.55;;;;;;;5.42;85.82;99407.91;10221379;29;20047;-74
2022/04/23 05:19:03;;;;;;;21.65;20.05;;;;;;;5.66;83.71;99413.47;10221026;29;20050;-74
2022/04/23 05:24:06;;;;;;;21.45;19.77;;;;;;;5.89;80.67;99416.44;10221321;29;20050;-73
2022/04/23 05:29:08;;;;;;;18.35;16.85;;;;;;;6.17;78.60;99411.47;10223229;29;20048;-75
2022/04/23 05:34:10;;;;;;;19.45;17.85;;;;;;;6.32;77.39;99425.91;10218353;29;20051;-73
2022/04/23 05:39:11;;;;;;;19.20;17.65;;;;;;;6.65;75.72;99428.59;10218759;29;20048;-73
2022/04/23 05:44:13;;;;;;;19.08;17.58;;;;;;;6.67;74.94;99432.84;10202012;29;20048;-73
2022/04/23 05:49:14;;;;;;;19.25;17.48;;;;;;;6.99;73.90;99428.53;10220004;29;20063;-74
2022/04/23 05:54:36;;;;;;;18.05;16.58;;;;;;;7.15;72.91;99421.16;10220150;29;20130;-75
2022/04/23 05:59:38;;;;;;;16.30;14.93;;;;;;;7.77;69.62;99410.63;10220964;29;20039;-73
2022/04/23 06:04:40;;;;;;;16.00;14.90;;;;;;;8.12;66.01;99411.31;10221038;29;20502;-73
2022/04/23 06:09:42;;;;;;;14.85;13.65;;;;;;;8.37;65.29;99416.63;10227447;29;20064;-74
2022/04/23 06:14:44;;;;;;;13.20;12.20;;;;;;;8.96;63.48;99413.75;10228714;29;20047;-74
2022/04/23 06:19:45;;;;;;;12.20;11.20;;;;;;;9.22;61.63;99411.06;10229776;29;20055;-74
2022/04/23 06:24:47;;;;;;;12.60;11.70;;;;;;;9.41;60.06;99423.50;10229124;29;20092;-73
2022/04/23 06:29:49;;;;;;;12.57;11.68;;;;;;;9.66;58.56;99415.59;10228620;29;20082;-73
2022/04/23 06:34:50;;;;;;;11.02;10.23;;;;;;;10.06;58.86;99418.38;10225592;29;20055;-73
2022/04/23 06:39:52;;;;;;;11.63;10.82;;;;;;;10.22;57.72;99417.75;10227747;29;20044;-73
2022/04/23 06:44:53;;;;;;;10.50;9.65;;;;;;;10.67;54.46;99422.06;10226888;29;20044;-75
2022/04/23 06:50:01;;;;;;;9.93;9.23;;;;;;;10.75;54.85;99426.09;10229626;29;20494;-74
2022/04/23 06:55:04;;;;;;;10.02;9.32;;;;;;;10.85;56.74;99431.84;10226076;29;20051;-75
2022/04/23 07:00:09;;;;;;;9.30;8.70;;;;;;;11.37;53.61;99419.03;10228990;29;20050;-74
2022/04/23 07:05:11;;;;;;;9.68;8.98;;;;;;;11.42;52.37;99424.97;10225766;29;20032;-75
2022/04/23 07:10:12;;;;;;;8.18;7.57;;;;;;;11.47;52.08;99422.13;10224901;29;20524;-75
2022/04/23 07:15:15;;;;;;;8.50;7.90;;;;;;;11.96;51.91;99418.09;10226700;29;20095;-74
2022/04/23 07:20:18;;;;;;;7.75;7.25;;;;;;;12.10;50.57;99417.44;10225589;29;20054;-73
2022/04/23 07:25:19;;;;;;;8.05;7.45;;;;;;;11.92;52.29;99407.78;10228121;29;20036;-74
2022/04/23 07:30:21;;;;;;;7.13;6.65;;;;;;;11.91;50.18;99409.56;10226832;29;20446;-74
2022/04/23 07:40:44;;;;;;;6.43;5.93;;;;;;;12.40;48.60;99398.44;10227080;29;20058;-75
2022/04/23 07:45:46;;;;;;;4.95;4.65;;;;;;;12.33;48.78;99392.63;10225064;29;20127;-75
2022/04/23 07:50:48;;;;;;;5.18;4.78;;;;;;;13.00;46.27;99390.97;10223402;29;20506;-76
2022/04/23 07:55:50;;;;;;;4.40;4.10;;;;;;;12.69;44.91;99394.34;10225201;29;20079;-75
2022/04/23 08:00:51;;;;;;;3.42;3.13;;;;;;;12.89;43.67;99383.63;10224529;29;20039;-75
2022/04/23 08:05:53;;;;;;;3.53;3.22;;;;;;;12.96;44.98;99373.59;10223153;29;20387;-75
2022/04/23 08:10:54;;;;;;;2.60;2.40;;;;;;;13.58;42.62;99372.06;10224349;29;20066;-75
2022/04/23 08:15:56;;;;;;;1.70;1.60;;;;;;;13.53;41.65;99374.97;10222844;29;20039;-74
2022/04/23 08:20:58;;;;;;;4.05;1.88;;;;;;;13.54;40.25;99376.66;10222688;29;20063;-76
2022/04/23 08:26:02;;;;;;;1.85;1.75;;;;;;;13.17;40.87;99377.75;10223332;29;20111;-75
2022/04/23 08:31:03;;;;;;;2.05;1.58;;;;;;;13.62;39.62;99370.97;10223614;29;20051;-75
2022/04/23 08:36:05;;;;;;;2.53;1.45;;;;;;;13.54;38.56;99370.53;10225226;29;20486;-77
2022/04/23 08:41:08;;;;;;;2.00;1.65;;;;;;;13.87;38.32;99368.69;10223103;29;20108;-75
2022/04/23 08:46:12;;;;;;;2.03;1.50;;;;;;;14.63;37.99;99366.09;10222150;29;20055;-76
2022/04/23 08:51:18;;;;;;;1.65;1.55;;;;;;;14.13;37.78;99358.44;10219613;29;20470;-75
2022/04/23 08:56:20;;;;;;;1.87;1.53;;;;;;;13.90;38.36;99354.47;10220408;29;20043;-75
2022/04/23 09:01:22;;;;;;;5.20;1.70;;;;;;;14.53;38.81;99350.88;10220735;29;20055;-74
2022/04/23 09:06:27;;;;;;;1.75;1.60;;;;;;;14.92;37.43;99360.00;10221531;29;20047;-74
2022/04/23 09:11:35;;;;;;;1.60;1.48;;;;;;;14.96;37.53;99346.50;10220269;29;20046;-76
2022/04/23 09:27:30;;;;;;;4.60;2.00;;;;;;;15.58;36.08;99343.53;10221617;29;20047;-76
2022/04/23 09:32:32;;;;;;;1.77;1.67;;;;;;;15.88;35.25;99316.91;10222025;29;20048;-76
2022/04/23 09:43:00;;;;;;;2.08;1.85;;;;;;;16.23;35.38;99327.03;10221806;29;20044;-74
2022/04/23 09:48:04;;;;;;;2.17;1.60;;;;;;;16.61;35.40;99327.13;10221018;29;20618;-75
2022/04/23 09:53:13;;;;;;;2.45;1.80;;;;;;;16.96;34.06;99318.56;10220684;29;20414;-75
2022/04/23 09:58:16;;;;;;;1.60;1.50;;;;;;;16.66;34.79;99314.38;10219841;29;20048;-74
2022/04/23 10:03:19;;;;;;;1.58;1.48;;;;;;;17.08;34.61;99312.38;10223073;29;20048;-74
2022/04/23 10:08:34;;;;;;;1.60;1.50;;;;;;;17.67;32.15;99314.41;10221282;29;20039;-75
2022/04/23 10:13:40;;;;;;;2.22;1.60;;;;;;;17.59;34.48;99299.88;10221474;29;20103;-75
2022/04/23 10:18:43;;;;;;;1.38;1.27;;;;;;;18.33;32.44;99294.47;10222352;29;20082;-74
2022/04/23 10:24:09;;;;;;;2.08;1.50;;;;;;;18.13;32.21;99291.47;10244589;29;20578;-75
2022/04/23 10:29:19;;;;;;;1.50;1.40;;;;;;;18.20;33.90;99291.03;10201083;29;20411;-75
2022/04/23 10:34:32;;;;;;;1.85;1.63;;;;;;;17.69;34.01;99286.75;10214116;29;20051;-75
2022/04/23 10:39:33;;;;;;;1.83;1.57;;;;;;;18.06;33.72;99278.75;10180947;29;20036;-74
2022/04/23 10:44:35;;;;;;;1.73;1.60;;;;;;;17.41;33.92;99274.63;10198126;29;20047;-74
2022/04/23 10:49:37;;;;;;;3.10;1.63;;;;;;;17.44;33.89;99265.56;10222526;29;20039;-76
2022/04/23 10:54:40;;;;;;;3.60;1.63;;;;;;;17.20;35.16;99270.84;10228011;29;20052;-74
2022/04/23 10:59:49;;;;;;;1.70;1.42;;;;;;;17.50;34.82;99268.66;10228693;29;20122;-75
2022/04/23 11:16:06;;;;;;;1.70;1.60;;;;;;;17.94;34.47;99245.13;10228605;29;20044;-74
2022/04/23 11:21:21;;;;;;;1.70;1.60;;;;;;;18.36;35.56;99235.69;10228126;29;20094;-76
2022/04/23 11:26:42;;;;;;;5.63;1.70;;;;;;;17.97;33.28;99243.06;10211535;29;20107;-75
2022/04/23 11:31:51;;;;;;;1.20;1.10;;;;;;;17.61;33.13;99230.66;10229625;29;20465;-76
2022/04/23 11:36:53;;;;;;;1.80;1.23;;;;;;;18.11;33.03;99237.56;10228367;29;20367;-75
2022/04/23 11:41:55;;;;;;;1.35;1.25;;;;;;;17.44;34.63;99231.88;10228362;29;20043;-75
2022/04/23 11:46:56;;;;;;;2.00;1.75;;;;;;;17.82;34.37;99229.09;10228378;29;20151;-76
2022/04/23 11:52:25;;;;;;;1.70;1.60;;;;;;;17.54;34.58;99227.63;10226568;29;20075;-76
2022/04/23 11:57:27;;;;;;;1.65;1.55;;;;;;;17.30;34.84;99229.38;10224624;29;20067;-74
2022/04/23 12:02:31;;;;;;;1.83;1.70;;;;;;;17.74;34.58;99218.19;10225656;29;20052;-78
2022/04/23 12:07:33;;;;;;;2.90;1.73;;;;;;;17.57;35.00;99224.72;10225320;29;20096;-76
2022/04/23 12:12:35;;;;;;;2.10;2.00;;;;;;;17.35;34.99;99209.53;10225121;29;20103;-75
2022/04/23 12:17:45;;;;;;;2.10;1.90;;;;;;;17.80;35.57;99230.19;10224848;29;20046;-76
2022/04/23 12:22:58;;;;;;;2.05;1.90;;;;;;;17.52;35.66;99205.59;10224696;29;20073;-76
2022/04/23 12:44:20;;;;;;;3.85;2.20;;;;;;;17.06;36.46;99179.75;10226977;29;20062;-76
2022/04/23 12:49:22;;;;;;;2.70;1.90;;;;;;;17.42;36.09;99188.66;10226495;29;20043;-75
2022/04/23 12:54:24;;;;;;;2.42;2.22;;;;;;;17.79;35.90;99177.97;10226199;29;20071;-76
2022/04/23 12:59:26;;;;;;;2.40;2.08;;;;;;;17.29;36.13;99171.91;10224558;29;20044;-75
2022/04/23 13:04:27;;;;;;;2.45;2.25;;;;;;;17.63;36.02;99165.81;10224365;29;20402;-76
2022/04/23 13:09:29;;;;;;;2.25;2.05;;;;;;;17.76;36.03;99170.25;10225051;29;20046;-77
2022/04/23 13:14:31;;;;;;;2.03;1.92;;;;;;;17.68;35.01;99156.66;10224797;29;20127;-77
2022/04/23 13:19:34;;;;;;;2.35;2.15;;;;;;;17.71;35.69;99154.63;10224362;29;20043;-77
2022/04/23 13:24:36;;;;;;;1.83;1.70;;;;;;;17.25;37.16;99154.50;10223983;29;20052;-74
2022/04/23 13:29:37;;;;;;;3.28;2.20;;;;;;;17.59;36.10;99143.06;10224463;29;20043;-75
2022/04/23 13:34:40;;;;;;;1.92;1.83;;;;;;;17.19;36.32;99147.84;10223520;29;20071;-76
2022/04/23 13:39:41;;;;;;;2.33;2.05;;;;;;;17.26;37.31;99127.81;10224267;29;20051;-76
2022/04/23 13:44:43;;;;;;;2.40;2.20;;;;;;;17.10;37.56;99129.94;10222885;29;20126;-76
2022/04/23 13:49:45;;;;;;;2.15;1.88;;;;;;;17.09;37.70;99118.47;10225699;29;20054;-76
2022/04/23 13:54:47;;;;;;;2.83;1.98;;;;;;;17.00;37.40;99112.94;10225690;29;20054;-76
2022/04/23 13:59:48;;;;;;;2.45;2.25;;;;;;;16.60;38.71;99115.78;10220023;29;20069;-74
2022/04/23 14:10:10;;;;;;;2.03;1.90;;;;;;;16.49;39.22;99103.28;10227335;29;20410;-76
2022/04/23 14:15:13;;;;;;;2.20;2.10;;;;;;;16.58;38.30;99101.78;10225408;29;20398;-75
2022/04/23 14:20:15;;;;;;;4.93;2.67;;;;;;;16.73;38.66;99100.72;10223358;29;20513;-75
2022/04/23 14:25:18;;;;;;;2.42;2.22;;;;;;;16.48;38.53;99093.66;10224669;29;20048;-75
2022/04/23 14:30:19;;;;;;;4.05;2.53;;;;;;;16.20;39.22;99100.03;10230201;29;20048;-76
2022/04/23 14:35:21;;;;;;;2.22;2.03;;;;;;;16.29;38.92;99078.19;10230637;29;20047;-75
2022/04/23 14:40:23;;;;;;;2.40;2.20;;;;;;;16.38;39.08;99080.19;10228705;29;20127;-75
2022/04/23 14:45:28;;;;;;;2.40;2.20;;;;;;;16.41;38.94;99073.81;10230657;29;20048;-74
2022/04/23 14:53:10;;;;;;;2.53;2.33;;;;;;;16.46;38.87;99073.47;10229957;29;20051;-75
2022/04/23 14:55:52;;;;;;;2.63;2.42;;;;;;;16.48;38.67;99075.09;10230755;29;20510;-77
2022/04/23 15:00:55;;;;;;;2.75;2.55;;;;;;;16.28;39.70;99075.63;10226525;29;20115;-74
2022/04/23 15:05:58;;;;;;;2.85;2.50;;;;;;;16.46;39.28;99061.06;10212813;29;20108;-76
2022/04/23 15:11:00;;;;;;;2.55;2.35;;;;;;;16.23;39.84;99068.00;10231372;29;20048;-75
2022/04/23 15:16:03;;;;;;;2.90;2.70;;;;;;;16.42;38.73;99062.22;10229313;29;20048;-75
2022/04/23 15:21:04;;;;;;;3.03;2.83;;;;;;;16.38;39.23;99064.28;10228047;29;20455;-75
2022/04/23 15:26:07;;;;;;;2.92;2.60;;;;;;;16.28;39.49;99057.06;10227369;29;20050;-74
2022/04/23 15:31:08;;;;;;;2.75;2.55;;;;;;;16.12;39.57;99055.50;10226375;29;20391;-75
2022/04/23 15:36:10;;;;;;;3.38;2.85;;;;;;;16.09;39.75;99068.97;10225664;29;20148;-74
2022/04/23 15:41:12;;;;;;;2.95;2.65;;;;;;;15.94;39.43;99054.16;10224889;29;20063;-74
2022/04/23 15:46:14;;;;;;;2.60;2.40;;;;;;;15.89;39.47;99048.28;10225657;29;20073;-74
2022/04/23 15:51:16;;;;;;;2.90;2.60;;;;;;;15.81;39.09;99051.50;10225251;29;20414;-75
2022/04/23 15:56:22;;;;;;;3.47;2.90;;;;;;;15.66;39.29;99064.94;10225827;29;20043;-75
2022/04/23 16:01:24;;;;;;;3.05;2.85;;;;;;;15.59;39.93;99054.72;10226456;29;20047;-75
2022/04/23 16:06:25;;;;;;;3.15;2.92;;;;;;;15.75;39.95;99051.06;10227333;29;20406;-73
2022/04/23 16:11:27;;;;;;;2.53;2.28;;;;;;;15.69;38.99;99056.78;10227662;29;20559;-75
2022/04/23 16:16:29;;;;;;;2.85;2.50;;;;;;;15.83;38.72;99056.69;10226902;29;20126;-75
2022/04/23 16:21:31;;;;;;;4.55;3.05;;;;;;;15.57;39.27;99050.47;10227638;29;20047;-73
2022/04/23 16:26:32;;;;;;;4.15;2.17;;;;;;;15.55;38.79;99047.94;10227491;29;20525;-74
2022/04/23 16:31:34;;;;;;;3.08;2.88;;;;;;;15.59;39.00;99054.72;10224513;29;20056;-76
2022/04/23 16:47:16;;;;;;;2.60;2.40;;;;;;;15.42;39.42;99052.38;10181598;29;20115;-75
2022/04/23 16:52:19;;;;;;;3.88;2.78;;;;;;;15.36;39.03;99058.06;10183169;29;20055;-74
2022/04/23 16:57:20;;;;;;;2.97;2.78;;;;;;;15.29;39.52;99049.69;10198101;29;20040;-76
2022/04/23 17:02:22;;;;;;;2.67;2.47;;;;;;;15.10;39.97;99054.53;10183538;29;20062;-74
2022/04/23 17:07:24;;;;;;;3.55;3.30;;;;;;;15.14;39.88;99054.22;10182910;29;20494;-75
2022/04/23 17:12:26;;;;;;;3.00;2.80;;;;;;;14.99;39.76;99049.91;10199560;29;20058;-74
2022/04/23 17:17:27;;;;;;;3.45;3.25;;;;;;;14.91;40.18;99046.91;10200035;29;20048;-75
2022/04/23 17:22:29;;;;;;;3.65;3.35;;;;;;;14.89;40.20;99044.38;10184462;29;20059;-74
2022/04/23 17:27:30;;;;;;;3.50;3.20;;;;;;;14.87;40.33;99046.28;10185481;29;20064;-75
2022/04/23 17:32:32;;;;;;;3.58;3.13;;;;;;;14.74;41.00;99047.16;10181951;29;20059;-74
2022/04/23 17:37:34;;;;;;;4.45;4.15;;;;;;;14.56;41.27;99049.19;10183388;29;20076;-74
2022/04/23 17:42:37;;;;;;;3.60;3.40;;;;;;;14.58;41.62;99053.44;10197870;29;20054;-76
2022/04/23 17:47:38;;;;;;;3.70;3.40;;;;;;;14.43;42.08;99054.38;10182604;29;20048;-75
2022/04/23 17:52:40;;;;;;;3.13;2.65;;;;;;;14.39;41.44;99048.44;10183827;29;20056;-75
2022/04/23 17:57:42;;;;;;;8.18;3.80;;;;;;;14.18;41.71;99048.94;10183868;29;20135;-74
2022/04/23 18:08:04;;;;;;;3.60;3.30;;;;;;;14.17;41.79;99048.09;10185020;29;20036;-75
2022/04/23 18:13:06;;;;;;;4.28;3.97;;;;;;;14.10;42.25;99046.78;10184328;29;20044;-75
2022/04/23 18:18:08;;;;;;;4.47;4.18;;;;;;;13.92;42.59;99046.09;10183700;29;20483;-75
2022/04/23 18:23:10;;;;;;;4.22;3.95;;;;;;;13.85;42.78;99053.53;10199483;29;20414;-75
2022/04/23 18:28:11;;;;;;;4.50;4.13;;;;;;;13.76;43.37;99063.81;10185292;29;20100;-76
2022/04/23 18:33:13;;;;;;;4.35;4.00;;;;;;;13.70;43.01;99057.13;10185146;29;20056;-75
2022/04/23 18:38:14;;;;;;;4.40;4.10;;;;;;;13.61;43.40;99058.53;10186658;29;20147;-74
2022/04/23 18:43:36;;;;;;;4.93;4.60;;;;;;;13.59;43.68;99068.34;10185708;29;20052;-75
2022/04/23 18:48:38;;;;;;;5.15;4.82;;;;;;;13.54;44.23;99067.75;10183553;29;20056;-75
2022/04/23 18:53:39;;;;;;;4.45;4.15;;;;;;;13.33;44.34;99069.03;10185189;29;20069;-74
2022/04/23 18:58:41;;;;;;;4.88;4.57;;;;;;;13.24;44.89;99066.94;10183491;29;20044;-75
2022/04/23 19:03:42;;;;;;;5.22;4.88;;;;;;;13.21;44.82;99065.28;10183495;29;20048;-75
2022/04/23 19:08:44;;;;;;;5.65;5.18;;;;;;;12.90;45.73;99065.34;10184413;29;20482;-75
2022/04/23 19:13:47;;;;;;;4.70;4.40;;;;;;;13.01;45.31;99060.28;10190592;29;20084;-74
2022/04/23 19:18:49;;;;;;;5.25;4.72;;;;;;;12.85;45.67;99063.81;10191574;29;20073;-75
2022/04/23 19:29:13;;;;;;;5.43;5.03;;;;;;;12.65;46.31;99053.50;10189811;29;20040;-75
2022/04/23 19:34:15;;;;;;;5.57;5.18;;;;;;;12.51;46.86;99056.06;10206141;29;20107;-75
2022/04/23 19:39:17;;;;;;;5.63;5.22;;;;;;;12.45;46.91;99051.16;10191089;29;20095;-76
2022/04/23 19:44:18;;;;;;;5.15;4.85;;;;;;;12.32;47.31;99049.19;10191002;29;20139;-75
2022/04/23 19:49:22;;;;;;;6.93;6.40;;;;;;;12.22;47.57;99052.38;10203908;29;20055;-74
2022/04/23 19:54:24;;;;;;;6.40;5.90;;;;;;;12.14;47.90;99049.34;10167041;29;20048;-74
2022/04/23 19:59:26;;;;;;;8.23;7.53;;;;;;;12.16;47.47;99053.56;10184122;29;20044;-75
2022/04/23 20:04:28;;;;;;;7.35;6.75;;;;;;;11.91;48.03;99048.78;10183879;29;20052;-76
2022/04/23 20:09:30;;;;;;;7.47;6.97;;;;;;;12.05;47.99;99048.03;10183242;29;20418;-75
2022/04/23 20:14:31;;;;;;;7.68;7.13;;;;;;;11.92;48.74;99054.88;10183394;29;20044;-75
2022/04/23 20:19:33;;;;;;;7.30;6.80;;;;;;;12.00;48.04;99047.44;10198108;29;20051;-73
2022/04/23 20:24:36;;;;;;;6.60;6.20;;;;;;;11.85;48.44;99041.19;10182974;29;20055;-74
2022/04/23 20:29:38;;;;;;;7.35;6.85;;;;;;;11.65;49.12;99039.56;10182229;29;20075;-75
2022/04/23 20:40:00;;;;;;;6.70;6.20;;;;;;;11.06;51.65;99043.44;10183425;29;20503;-73
2022/04/23 20:45:02;;;;;;;7.43;6.93;;;;;;;11.04;51.67;99042.69;10197831;29;20052;-73
2022/04/23 20:50:05;;;;;;;7.10;6.60;;;;;;;10.99;52.20;99039.44;10183871;29;20048;-74
2022/04/23 20:55:07;;;;;;;7.15;6.65;;;;;;;10.97;52.49;99036.84;10183909;29;20055;-74
2022/04/23 21:00:11;;;;;;;10.00;9.23;;;;;;;11.01;51.58;99040.19;10183311;29;20100;-74
2022/04/23 21:05:13;;;;;;;9.13;8.43;;;;;;;10.76;52.15;99035.28;10183093;29;20048;-74
2022/04/23 21:10:15;;;;;;;9.02;8.32;;;;;;;10.57;53.08;99041.41;10182495;29;20072;-73
2022/04/23 21:15:18;;;;;;;8.40;7.78;;;;;;;10.46;55.41;99048.13;10182416;29;20051;-73
2022/04/23 21:20:20;;;;;;;8.20;7.60;;;;;;;10.56;56.15;99042.34;10181599;29;20115;-73
2022/04/23 21:25:22;;;;;;;8.60;7.90;;;;;;;10.10;56.78;99035.72;10180945;29;20048;-74
2022/04/23 21:30:24;;;;;;;8.50;7.90;;;;;;;10.13;57.00;99032.94;10180335;29;20140;-73
2022/04/23 21:35:26;;;;;;;8.65;8.02;;;;;;;9.82;57.96;99025.59;10182200;29;20044;-74
2022/04/23 21:40:27;;;;;;;8.13;7.53;;;;;;;9.37;59.08;99018.84;10182583;29;20122;-73
2022/04/23 21:45:31;;;;;;;9.15;8.48;;;;;;;9.29;60.09;99018.31;10195863;29;20048;-73
2022/04/23 21:50:33;;;;;;;10.85;10.07;;;;;;;9.24;61.23;99018.50;10179317;29;20422;-74
2022/04/23 21:55:34;;;;;;;10.00;9.30;;;;;;;9.28;60.74;99020.09;10180572;29;20130;-73
2022/04/23 22:00:36;;;;;;;10.65;9.77;;;;;;;8.98;60.90;99024.84;10180641;29;20051;-73
2022/04/23 22:05:38;;;;;;;9.82;9.13;;;;;;;8.76;61.51;99022.25;10195645;29;20058;-74
2022/04/23 22:10:40;;;;;;;10.40;9.60;;;;;;;8.80;61.39;99017.72;10196959;29;20092;-73
2022/04/23 22:15:42;;;;;;;10.25;9.45;;;;;;;8.77;61.76;99010.88;10182261;29;20095;-73
2022/04/23 22:20:43;;;;;;;12.43;11.50;;;;;;;8.80;62.19;99015.97;10181677;29;20064;-74
2022/04/23 22:25:46;;;;;;;12.80;11.80;;;;;;;8.53;62.76;99003.97;10181055;29;20104;-75
2022/04/23 22:30:48;;;;;;;12.10;11.20;;;;;;;8.41;64.02;99010.56;10179348;29;20083;-74
2022/04/23 22:35:49;;;;;;;12.88;11.65;;;;;;;8.67;62.30;99004.28;10179796;29;20115;-74
2022/04/23 22:40:52;;;;;;;12.52;11.57;;;;;;;8.40;64.08;98998.38;10180070;29;20066;-74
2022/04/23 22:45:53;;;;;;;11.73;10.93;;;;;;;8.43;63.26;98997.41;10183681;29;20055;-74
2022/04/23 22:50:55;;;;;;;11.55;10.75;;;;;;;7.99;64.53;98998.19;10190395;29;20104;-75
2022/04/23 22:55:57;;;;;;;11.30;10.43;;;;;;;7.70;65.86;98999.28;10189995;29;20048;-73
2022/04/23 23:00:58;;;;;;;11.70;10.90;;;;;;;7.83;66.19;98986.56;10188776;29;20067;-73
2022/04/23 23:06:01;;;;;;;12.70;11.75;;;;;;;8.07;65.16;98990.91;10185747;29;20044;-74
2022/04/23 23:11:04;;;;;;;13.82;12.70;;;;;;;8.06;65.22;98983.13;10185117;29;20040;-73
2022/04/23 23:16:06;;;;;;;13.45;12.40;;;;;;;7.93;65.53;98980.09;10199601;29;20151;-73
2022/04/23 23:21:08;;;;;;;11.77;10.98;;;;;;;7.79;65.96;98969.28;10185662;29;20044;-74
2022/04/23 23:26:09;;;;;;;12.02;11.18;;;;;;;7.76;66.57;98966.81;10183986;29;20134;-74
2022/04/23 23:31:11;;;;;;;12.95;11.93;;;;;;;7.50;66.86;98955.53;10184758;29;20463;-74
2022/04/23 23:36:12;;;;;;;12.07;11.23;;;;;;;7.46;68.11;98951.31;10184807;29;20052;-74
2022/04/23 23:41:14;;;;;;;12.82;11.75;;;;;;;7.47;67.48;98947.78;10184558;29;20036;-74
2022/04/23 23:46:16;;;;;;;12.43;11.52;;;;;;;7.31;68.07;98951.88;10184153;29;20076;-74
2022/04/23 23:51:17;;;;;;;13.25;12.25;;;;;;;7.19;68.74;98936.63;10181900;29;20132;-73
2022/04/23 23:56:20;;;;;;;12.88;11.98;;;;;;;7.25;68.62;98937.25;10183009;29;20052;-74
